^^
Peaceful Hills Weather Station Historical Data
 
Daily Summary for May 22, 2022 Units:  English    Metric   Both
Daily Weekly Monthly Yearly
  Current: High: Low: Average:
Temperature: 58.7 °F 65.1 °F 57.7 °F 59.1 °F
Dew Point: 56.4 °F 62.4 °F 55.4 °F 56.8 °F
Humidity: 92% 92% 91.2% 92%
Wind Speed: 2mph 8.8mph 0mph 2.8mph
Wind Gust: 4mph 24mph - -
WindWest - - South
Pressure: 30.22 in 30.23 in 30.03 in -
Precipitation: 0.81 in      
 
 
Tabular Data for May 22, 2022
Time Temperature Dew Point Pressure Wind Wind Speed Wind Gust Humidity Rainfall Rate (Hourly)
00:09 65.1 °F 62.4 °F 30.03 in North 2.4 mph 9 mph 91.2% 0.10 in
00:14 64.7 °F 62 °F 30.06 in NW 2.8 mph 9 mph 91.2% 0.10 in
00:19 64.5 °F 62.1 °F 30.08 in SSW 4.2 mph 9 mph 92% 0.11 in
00:24 64.5 °F 61.9 °F 30.09 in ESE 2 mph 9 mph 91.2% 0.12 in
00:29 64.4 °F 61.9 °F 30.08 in ESE 2.4 mph 7 mph 91.8% 0.13 in
00:34 64.4 °F 61.8 °F 30.08 in ESE 2 mph 4 mph 91.4% 0.15 in
00:39 64.3 °F 61.8 °F 30.08 in ESE 2 mph 4 mph 91.8% 0.15 in
00:44 64.2 °F 61.6 °F 30.08 in ESE 3.2 mph 7 mph 91.6% 0.14 in
00:49 63.8 °F 61.2 °F 30.07 in NE 4.8 mph 9 mph 91.4% 0.13 in
00:54 63.3 °F 60.9 °F 30.07 in SSW 4.2 mph 16 mph 92% 0.14 in
00:59 62.9 °F 60.5 °F 30.06 in SSE 4.2 mph 12 mph 92% 0.14 in
01:04 62.7 °F 60.3 °F 30.06 in WSW 1.6 mph 7 mph 92% 0.14 in
01:09 62.5 °F 60.1 °F 30.07 in West 3.4 mph 7 mph 92% 0.14 in
01:14 62 °F 59.6 °F 30.07 in NNE 2.4 mph 9 mph 92% 0.14 in
01:19 61.5 °F 59.2 °F 30.07 in NNE 3.8 mph 10 mph 92% 0.14 in
01:24 61.1 °F 58.8 °F 30.08 in ESE 2 mph 10 mph 92% 0.14 in
01:29 61.1 °F 58.8 °F 30.08 in SE 0.4 mph 5 mph 92% 0.14 in
01:34 60.8 °F 58.5 °F 30.09 in SE 2.4 mph 5 mph 92% 0.12 in
01:39 60.5 °F 58.2 °F 30.10 in West 2.6 mph 7 mph 92% 0.12 in
01:44 60.4 °F 58.1 °F 30.11 in West 0.8 mph 5 mph 92% 0.12 in
01:49 60.3 °F 58 °F 30.12 in NW 0.8 mph 5 mph 92% 0.12 in
01:54 60.3 °F 58 °F 30.13 in ESE 2.2 mph 9 mph 92% 0.12 in
01:59 60.1 °F 57.8 °F 30.13 in East 2.8 mph 5 mph 92% 0.12 in
02:04 59.9 °F 57.6 °F 30.13 in East 2.6 mph 7 mph 92% 0.14 in
02:09 59.7 °F 57.4 °F 30.13 in North 1.8 mph 9 mph 92% 0.15 in
02:14 59.7 °F 57.4 °F 30.13 in North 1.2 mph 9 mph 92% 0.16 in
02:19 59.7 °F 57.4 °F 30.13 in South 3 mph 5 mph 92% 0.16 in
02:24 59.6 °F 57.3 °F 30.15 in South 3.6 mph 5 mph 92% 0.17 in
02:29 59.7 °F 57.4 °F 30.15 in SSE 1.4 mph 5 mph 92% 0.18 in
02:34 59.5 °F 57.2 °F 30.12 in SE 4.4 mph 7 mph 92% 0.20 in
02:39 59.3 °F 57 °F 30.13 in ESE 3.4 mph 9 mph 92% 0.24 in
02:44 59.1 °F 56.8 °F 30.14 in WNW 4.4 mph 7 mph 92% 0.25 in
02:49 59.1 °F 56.8 °F 30.14 in WNW 2.4 mph 5 mph 92% 0.26 in
02:54 59 °F 56.7 °F 30.12 in ESE 5.8 mph 12 mph 92% 0.26 in
02:59 58.9 °F 56.6 °F 30.11 in SSE 5.4 mph 16 mph 92% 0.26 in
03:04 58.8 °F 56.5 °F 30.14 in SSW 3.8 mph 9 mph 92% 0.26 in
03:09 58.9 °F 56.6 °F 30.15 in SW 1.6 mph 5 mph 92% 0.24 in
03:14 58.9 °F 56.6 °F 30.14 in SW 1.2 mph 4 mph 92% 0.25 in
03:24 58.7 °F 56.4 °F 30.12 in ESE 3.4 mph 9 mph 92% 0.25 in
03:29 58.8 °F 56.5 °F 30.15 in SSW 3.8 mph 7 mph 92% 0.25 in
03:34 58.7 °F 56.4 °F 30.15 in WSW 2.8 mph 5 mph 92% 0.24 in
03:39 58.6 °F 56.3 °F 30.15 in WSW 2.4 mph 5 mph 92% 0.23 in
03:44 58.4 °F 56.1 °F 30.15 in NNE 2.8 mph 5 mph 92% 0.20 in
03:49 58.3 °F 56 °F 30.14 in ESE 3 mph 9 mph 92% 0.21 in
03:54 58.3 °F 56 °F 30.14 in East 0.8 mph 9 mph 92% 0.20 in
03:59 58.4 °F 56.1 °F 30.14 in SE 3 mph 12 mph 92% 0.19 in
04:04 58.2 °F 55.9 °F 30.14 in NE 1.6 mph 12 mph 92% 0.17 in
04:09 58.2 °F 55.9 °F 30.14 in NNE 4.6 mph 9 mph 92% 0.18 in
04:14 58.2 °F 55.9 °F 30.12 in ENE 5.4 mph 23 mph 92% 0.19 in
04:19 58.2 °F 55.9 °F 30.09 in ESE 8.8 mph 21 mph 92% 0.19 in
04:24 58 °F 55.7 °F 30.10 in NE 4.2 mph 21 mph 92% 0.18 in
04:29 58 °F 55.7 °F 30.11 in West 4.4 mph 9 mph 92% 0.18 in
04:34 58 °F 55.7 °F 30.14 in West 1.6 mph 5 mph 92% 0.17 in
04:39 58 °F 55.7 °F 30.14 in West 1.2 mph 5 mph 92% 0.16 in
04:44 58.1 °F 55.8 °F 30.15 in NNW 1.2 mph 9 mph 92% 0.15 in
04:49 58 °F 55.7 °F 30.15 in NE 2 mph 9 mph 92% 0.13 in
04:54 57.9 °F 55.6 °F 30.14 in North 3 mph 7 mph 92% 0.13 in
04:59 57.9 °F 55.6 °F 30.15 in NW 3.4 mph 7 mph 92% 0.12 in
05:04 57.8 °F 55.5 °F 30.16 in West 3.2 mph 7 mph 92% 0.11 in
05:09 57.7 °F 55.4 °F 30.16 in ENE 2.6 mph 7 mph 92% 0.09 in
05:14 57.8 °F 55.5 °F 30.17 in NE 1.6 mph 4 mph 92% 0.07 in
05:19 57.9 °F 55.6 °F 30.17 in NE 2 mph 5 mph 92% 0.04 in
05:24 57.9 °F 55.6 °F 30.17 in NE 2 mph 5 mph 92% 0.03 in
05:29 58 °F 55.7 °F 30.16 in ENE 2.8 mph 5 mph 92% 0.02 in
05:34 57.9 °F 55.6 °F 30.15 in East 3.8 mph 19 mph 92% 0.02 in
05:39 58 °F 55.7 °F 30.13 in ESE 4.6 mph 23 mph 92% 0.01 in
05:44 57.9 °F 55.6 °F 30.12 in West 5.8 mph 24 mph 92% 0.01 in
05:49 57.9 °F 55.6 °F 30.12 in NW 3.4 mph 16 mph 92% 0.01 in
05:54 57.8 °F 55.5 °F 30.13 in NNW 4.2 mph 16 mph 92% 0.01 in
05:59 57.7 °F 55.4 °F 30.14 in WSW 4.4 mph 16 mph 92% 0.01 in
06:04 57.7 °F 55.4 °F 30.15 in SE 3 mph 9 mph 92% 0.01 in
06:09 57.7 °F 55.4 °F 30.16 in NE 4.4 mph 9 mph 92% 0.01 in
06:14 57.7 °F 55.4 °F 30.15 in WSW 4 mph 14 mph 92% 0.01 in
06:19 57.8 °F 55.5 °F 30.16 in WSW 5.2 mph 16 mph 92% 0.01 in
06:24 57.8 °F 55.5 °F 30.17 in SSW 3.2 mph 7 mph 92% 0.01 in
06:29 57.8 °F 55.5 °F 30.17 in WSW 2.6 mph 9 mph 92% 0.01 in
06:34 57.7 °F 55.4 °F 30.18 in SSW 3.4 mph 9 mph 92% 0.00 in
06:39 57.8 °F 55.5 °F 30.18 in South 1.8 mph 9 mph 92% 0.00 in
06:44 57.8 °F 55.5 °F 30.19 in SE 3.2 mph 10 mph 92% 0.00 in
06:54 57.8 °F 55.5 °F 30.19 in SE 1.2 mph 5 mph 92% 0.00 in
06:59 57.9 °F 55.6 °F 30.19 in ESE 1.6 mph 5 mph 92% 0.00 in
07:04 57.9 °F 55.6 °F 30.19 in ESE 0.4 mph 4 mph 92% 0.00 in
07:09 57.8 °F 55.5 °F 30.19 in SSE 1.6 mph 4 mph 92% 0.00 in
07:14 57.8 °F 55.5 °F 30.20 in Calm   2 mph 92% 0.00 in
07:19 57.8 °F 55.5 °F 30.20 in WNW 1.6 mph 4 mph 92% 0.00 in
07:24 57.8 °F 55.5 °F 30.20 in WNW 1.6 mph 5 mph 92% 0.00 in
07:29 57.8 °F 55.5 °F 30.20 in WNW 2.6 mph 5 mph 92% 0.00 in
07:34 57.9 °F 55.6 °F 30.21 in NW 1.6 mph 5 mph 92% 0.00 in
07:39 58 °F 55.7 °F 30.21 in NW 2.4 mph 5 mph 92% 0.00 in
07:44 58.1 °F 55.8 °F 30.21 in NE 0.8 mph 5 mph 92% 0.00 in
07:49 58.1 °F 55.8 °F 30.21 in NE 1.2 mph 5 mph 92% 0.00 in
07:54 58.1 °F 55.8 °F 30.21 in NE 1.8 mph 5 mph 92% 0.00 in
07:59 58.1 °F 55.8 °F 30.21 in ENE 3 mph 7 mph 92% 0.00 in
08:04 58.1 °F 55.8 °F 30.22 in NNW 2 mph 5 mph 92% 0.00 in
08:09 58.2 °F 55.9 °F 30.22 in North 2 mph 5 mph 92% 0.00 in
08:14 58.2 °F 55.9 °F 30.22 in North 2 mph 5 mph 92% 0.00 in
08:19 58.2 °F 55.9 °F 30.22 in NW 3 mph 7 mph 92% 0.00 in
08:24 58.1 °F 55.8 °F 30.22 in WNW 2.6 mph 7 mph 92% 0.00 in
08:29 58.1 °F 55.8 °F 30.22 in WNW 2.4 mph 9 mph 92% 0.00 in
08:34 58 °F 55.7 °F 30.22 in WNW 3.4 mph 10 mph 92% 0.00 in
08:39 58 °F 55.7 °F 30.22 in NNE 2.8 mph 14 mph 92% 0.00 in
08:44 58.1 °F 55.8 °F 30.22 in WSW 2.8 mph 9 mph 92% 0.00 in
08:49 58.2 °F 55.9 °F 30.22 in SW 0.8 mph 7 mph 92% 0.00 in
08:54 58.2 °F 55.9 °F 30.22 in East 3.8 mph 7 mph 92% 0.00 in
08:59 58.2 °F 55.9 °F 30.22 in WNW 2.6 mph 7 mph 92% 0.00 in
09:04 58.1 °F 55.8 °F 30.23 in West 2 mph 10 mph 92% 0.00 in
09:09 58.2 °F 55.9 °F 30.23 in East 3.6 mph 9 mph 92% 0.00 in
09:14 58.2 °F 55.9 °F 30.23 in North 3.6 mph 9 mph 92% 0.00 in
09:19 58.2 °F 55.9 °F 30.23 in West 3.2 mph 7 mph 92% 0.00 in
09:24 58.1 °F 55.8 °F 30.23 in SSE 2.8 mph 5 mph 92% 0.00 in
09:29 58.2 °F 55.9 °F 30.23 in West 3.4 mph 7 mph 92% 0.00 in
09:34 58.2 °F 55.9 °F 30.23 in North 2 mph 7 mph 92% 0.00 in
09:39 58.2 °F 55.9 °F 30.23 in WSW 2.8 mph 7 mph 92% 0.00 in
09:44 58.3 °F 56 °F 30.23 in NNW 2 mph 5 mph 92% 0.00 in
09:49 58.5 °F 56.2 °F 30.23 in NW 2 mph 5 mph 92% 0.00 in
09:54 58.7 °F 56.4 °F 30.22 in West 2 mph 4 mph 92% 0.00 in
Compliments of Weather Underground - 2 mb